createdAt,value
2019-03-11T00:01:55.417Z,44.39
2019-03-11T00:04:23.555Z,44.50
2019-03-11T00:06:50.821Z,44.04
2019-03-11T00:09:17.724Z,44.32
2019-03-11T00:11:44.941Z,44.18
2019-03-11T00:14:12.452Z,43.96
2019-03-11T00:16:39.347Z,43.52
2019-03-11T00:19:06.083Z,44.10
2019-03-11T00:21:32.833Z,44.14
2019-03-11T00:23:59.975Z,44.09
2019-03-11T00:26:26.855Z,43.63
2019-03-11T00:28:54.078Z,43.68
2019-03-11T00:31:21.638Z,43.62
2019-03-11T00:33:48.359Z,43.64
2019-03-11T00:36:15.224Z,43.85
2019-03-11T00:38:42.033Z,43.50
2019-03-11T00:41:09.738Z,43.60
2019-03-11T00:43:36.508Z,43.71
2019-03-11T00:46:03.262Z,43.43
2019-03-11T00:48:30.739Z,43.33
2019-03-11T00:50:58.703Z,43.51
2019-03-11T00:53:26.321Z,43.36
2019-03-11T00:55:53.414Z,43.56
2019-03-11T00:58:21.274Z,43.45
2019-03-11T01:00:48.500Z,43.53
2019-03-11T01:03:16.754Z,43.68
2019-03-11T01:05:43.568Z,43.72
2019-03-11T01:08:10.308Z,44.02
2019-03-11T01:10:37.057Z,43.87
2019-03-11T01:13:04.499Z,44.17
2019-03-11T01:15:31.349Z,44.00
2019-03-11T01:17:58.197Z,44.01
2019-03-11T01:20:25.130Z,43.45
2019-03-11T01:22:52.552Z,44.01
2019-03-11T01:25:19.667Z,43.97
2019-03-11T01:27:47.220Z,43.93
2019-03-11T01:30:16.013Z,43.69
2019-03-11T01:32:43.365Z,43.58
2019-03-11T01:35:10.751Z,43.36
2019-03-11T01:37:37.735Z,43.47
2019-03-11T01:40:16.754Z,43.34
2019-03-11T01:42:43.643Z,43.03
2019-03-11T01:45:14.857Z,43.05
2019-03-11T01:47:42.006Z,43.08
2019-03-11T01:50:11.991Z,42.92
2019-03-11T01:52:39.330Z,42.95
2019-03-11T01:55:08.949Z,42.87
2019-03-11T01:57:36.189Z,42.91
2019-03-11T02:00:15.990Z,42.61
2019-03-11T02:02:46.056Z,42.80
2019-03-11T02:05:13.417Z,42.69
2019-03-11T02:07:40.484Z,42.28
2019-03-11T02:10:15.811Z,42.74
2019-03-11T02:12:42.824Z,42.85
2019-03-11T02:15:14.990Z,42.80
2019-03-11T02:17:44.202Z,42.89
2019-03-11T02:20:16.728Z,42.86
2019-03-11T02:22:44.046Z,43.00
2019-03-11T02:25:12.470Z,42.93
2019-03-11T02:27:40.238Z,43.13
2019-03-11T02:30:14.477Z,43.02
2019-03-11T02:32:41.852Z,43.12
2019-03-11T02:35:09.361Z,42.85
2019-03-11T02:37:36.168Z,43.05
2019-03-11T02:40:12.983Z,43.21
2019-03-11T02:42:40.694Z,43.07
2019-03-11T02:45:09.429Z,42.76
2019-03-11T02:47:36.548Z,42.82
2019-03-11T02:50:08.861Z,42.71
2019-03-11T02:52:36.274Z,42.95
2019-03-11T02:55:05.498Z,43.08
2019-03-11T02:57:32.664Z,43.08
2019-03-11T02:59:59.625Z,44.28
2019-03-11T03:02:35.599Z,45.18
2019-03-11T03:05:08.245Z,46.68
2019-03-11T03:07:35.324Z,47.81
2019-03-11T03:10:04.077Z,49.54
2019-03-11T03:12:30.960Z,51.63
2019-03-11T03:14:57.705Z,52.99
2019-03-11T03:17:24.537Z,53.54
2019-03-11T03:19:51.395Z,54.32
2019-03-11T03:22:18.236Z,54.30
2019-03-11T03:24:45.154Z,54.36
2019-03-11T03:27:12.192Z,54.92
2019-03-11T03:29:39.163Z,55.46
2019-03-11T03:32:09.063Z,56.31
2019-03-11T03:34:36.106Z,57.28
2019-03-11T03:37:03.216Z,58.74
2019-03-11T03:39:30.302Z,59.28
2019-03-11T03:41:57.246Z,60.45
2019-03-11T03:44:24.318Z,62.63
2019-03-11T03:46:51.392Z,62.24
2019-03-11T03:49:18.206Z,62.35
2019-03-11T03:51:45.172Z,62.48
2019-03-11T03:54:12.048Z,62.92
2019-03-11T03:56:38.799Z,61.82
2019-03-11T03:59:05.652Z,62.15
2019-03-11T04:01:32.533Z,62.30
2019-03-11T04:03:59.317Z,62.00
2019-03-11T04:06:26.063Z,61.90
2019-03-11T04:08:53.283Z,61.85
2019-03-11T04:11:20.154Z,61.41
2019-03-11T04:13:47.166Z,60.66
2019-03-11T04:16:14.247Z,60.67
2019-03-11T04:18:53.607Z,60.32
2019-03-11T04:21:20.508Z,59.98
2019-03-11T04:23:48.626Z,58.96
2019-03-11T04:26:15.692Z,58.62
2019-03-11T04:28:42.986Z,58.06
2019-03-11T04:31:10.337Z,56.92
2019-03-11T04:33:37.439Z,55.91
2019-03-11T04:36:04.287Z,55.94
2019-03-11T04:38:31.259Z,56.02
2019-03-11T04:40:58.444Z,55.74
2019-03-11T04:43:25.260Z,54.54
2019-03-11T04:45:52.621Z,54.01
2019-03-11T04:48:19.568Z,53.92
2019-03-11T04:50:46.617Z,53.89
2019-03-11T04:53:13.517Z,53.70
2019-03-11T04:55:40.446Z,53.57
2019-03-11T04:58:07.735Z,53.44
2019-03-11T05:00:35.253Z,53.14
2019-03-11T05:03:02.581Z,52.95
2019-03-11T05:05:29.410Z,52.76
2019-03-11T05:07:56.385Z,52.78
2019-03-11T05:10:23.281Z,53.01
2019-03-11T05:12:50.201Z,53.30
2019-03-11T05:15:17.155Z,53.74
2019-03-11T05:17:44.440Z,54.16
2019-03-11T05:20:15.754Z,54.35
2019-03-11T05:22:42.929Z,54.54
2019-03-11T05:25:12.158Z,54.43
2019-03-11T05:27:39.621Z,54.36
2019-03-11T05:30:18.982Z,54.95
2019-03-11T05:32:46.250Z,55.09
2019-03-11T05:35:13.312Z,55.07
2019-03-11T05:37:40.536Z,55.26
2019-03-11T05:40:13.716Z,55.76
2019-03-11T05:42:40.306Z,55.53
2019-03-11T05:45:15.823Z,56.14
2019-03-11T05:47:42.778Z,55.71
2019-03-11T05:50:12.781Z,56.48
2019-03-11T05:52:39.752Z,56.95
2019-03-11T05:55:10.112Z,56.95
2019-03-11T05:57:37.116Z,58.58
2019-03-11T06:00:21.732Z,57.88
2019-03-11T06:02:48.485Z,57.44
2019-03-11T06:05:15.761Z,57.39
2019-03-11T06:07:42.771Z,58.22
2019-03-11T06:10:13.123Z,58.31
2019-03-11T06:12:40.014Z,58.32
2019-03-11T06:15:10.451Z,58.05
2019-03-11T06:17:37.700Z,58.72
2019-03-11T06:20:16.743Z,57.97
2019-03-11T06:22:43.847Z,58.10
2019-03-11T06:25:10.979Z,58.08
2019-03-11T06:27:38.122Z,58.53
2019-03-11T06:30:08.420Z,58.47
2019-03-11T06:32:35.345Z,58.09
2019-03-11T06:35:06.044Z,58.21
2019-03-11T06:37:32.892Z,58.73
2019-03-11T06:39:59.735Z,58.48
2019-03-11T06:42:26.481Z,58.65
2019-03-11T06:44:53.819Z,58.37
2019-03-11T06:47:20.933Z,58.33
2019-03-11T06:49:47.901Z,58.30
2019-03-11T06:52:15.023Z,58.06
2019-03-11T06:54:41.818Z,57.97
2019-03-11T06:57:09.269Z,57.73
2019-03-11T06:59:36.460Z,57.25
2019-03-11T07:02:06.496Z,57.31
2019-03-11T07:04:33.278Z,56.86
2019-03-11T07:07:00.108Z,56.24
2019-03-11T07:09:27.031Z,55.65
2019-03-11T07:11:53.973Z,55.42
2019-03-11T07:14:20.813Z,55.20
2019-03-11T07:16:47.615Z,55.34
2019-03-11T07:19:14.534Z,55.27
2019-03-11T07:21:41.306Z,55.08
2019-03-11T07:24:08.043Z,54.41
2019-03-11T07:26:48.290Z,54.72
2019-03-11T07:29:15.065Z,54.67
2019-03-11T07:31:42.339Z,54.88
2019-03-11T07:34:09.884Z,55.09
2019-03-11T07:36:37.524Z,54.85
2019-03-11T07:39:04.798Z,54.94
2019-03-11T07:41:31.594Z,54.84
2019-03-11T07:43:58.362Z,55.33
2019-03-11T07:46:25.155Z,56.31
2019-03-11T07:48:52.280Z,58.52
2019-03-11T07:51:19.287Z,60.02
2019-03-11T07:53:46.022Z,60.86
2019-03-11T07:56:13.016Z,60.91
2019-03-11T07:58:39.790Z,60.83
2019-03-11T08:01:09.596Z,61.75
2019-03-11T08:03:36.535Z,61.95
2019-03-11T08:06:03.757Z,62.11
2019-03-11T08:08:30.945Z,62.43
2019-03-11T08:10:57.773Z,62.12
2019-03-11T08:13:24.549Z,63.07
2019-03-11T08:15:51.351Z,61.32
2019-03-11T08:18:18.205Z,61.37
2019-03-11T08:20:44.994Z,61.10
2019-03-11T08:23:11.761Z,60.85
2019-03-11T08:25:38.675Z,60.41
2019-03-11T08:28:05.684Z,59.32
2019-03-11T08:30:32.601Z,58.90
2019-03-11T08:32:59.369Z,58.49
2019-03-11T08:35:26.553Z,58.18
2019-03-11T08:37:53.847Z,57.62
2019-03-11T08:40:21.064Z,57.50
2019-03-11T08:42:48.445Z,57.45
2019-03-11T08:45:17.512Z,57.30
2019-03-11T08:47:44.405Z,56.98
2019-03-11T08:50:13.585Z,56.70
2019-03-11T08:52:40.430Z,56.71
2019-03-11T08:55:08.241Z,56.58
2019-03-11T08:57:36.323Z,56.00
2019-03-11T09:00:09.153Z,55.99
2019-03-11T09:02:36.018Z,55.89
2019-03-11T09:05:10.630Z,55.65
2019-03-11T09:07:38.729Z,55.84
2019-03-11T09:10:16.264Z,55.42
2019-03-11T09:12:43.527Z,55.21
2019-03-11T09:15:15.477Z,55.38
2019-03-11T09:17:42.371Z,54.99
2019-03-11T09:20:12.333Z,55.20
2019-03-11T09:22:39.335Z,54.69
2019-03-11T09:25:19.740Z,54.80
2019-03-11T09:27:46.992Z,54.50
2019-03-11T09:30:20.590Z,54.32
2019-03-11T09:32:47.438Z,53.66
2019-03-11T09:35:14.615Z,53.70
2019-03-11T09:37:41.676Z,53.38
2019-03-11T09:40:12.328Z,52.74
2019-03-11T09:42:39.347Z,52.12
2019-03-11T09:45:11.103Z,51.16
2019-03-11T09:47:40.984Z,51.40
2019-03-11T09:50:10.987Z,51.31
2019-03-11T09:52:39.688Z,51.54
2019-03-11T09:55:18.368Z,50.84
2019-03-11T09:57:45.457Z,50.93
2019-03-11T10:00:18.305Z,50.10
2019-03-11T10:02:52.454Z,50.82
2019-03-11T10:05:14.412Z,50.44
2019-03-11T10:07:41.663Z,50.57
2019-03-11T10:10:17.911Z,50.80
2019-03-11T10:12:45.090Z,50.82
2019-03-11T10:15:17.687Z,50.06
2019-03-11T10:18:01.095Z,50.19
2019-03-11T10:20:29.042Z,50.84
2019-03-11T10:22:55.859Z,50.43
2019-03-11T10:25:22.834Z,50.10
2019-03-11T10:27:51.594Z,50.09
2019-03-11T10:30:21.804Z,49.91
2019-03-11T10:32:51.927Z,50.13
2019-03-11T10:35:31.561Z,49.54
2019-03-11T10:37:48.968Z,49.58
2019-03-11T10:40:32.090Z,49.30
2019-03-11T10:42:59.061Z,49.27
2019-03-11T10:45:31.566Z,48.17
2019-03-11T10:48:03.508Z,47.99
2019-03-11T10:50:30.384Z,47.40
2019-03-11T10:52:57.390Z,47.89
2019-03-11T10:55:26.288Z,49.33
2019-03-11T10:57:53.519Z,49.54
2019-03-11T11:00:27.906Z,49.54
2019-03-11T11:02:55.386Z,49.46
2019-03-11T11:05:22.968Z,48.23
2019-03-11T11:07:50.331Z,47.23
2019-03-11T11:10:21.375Z,46.54
2019-03-11T11:12:48.250Z,46.71
2019-03-11T11:15:28.438Z,45.78
2019-03-11T11:17:55.894Z,46.66
2019-03-11T11:20:23.566Z,46.71
2019-03-11T11:22:52.871Z,46.12
2019-03-11T11:25:24.884Z,46.59
2019-03-11T11:27:51.978Z,46.35
2019-03-11T11:30:27.095Z,46.31
2019-03-11T11:32:56.061Z,47.80
2019-03-11T11:35:23.377Z,48.69
2019-03-11T11:37:50.698Z,49.90
2019-03-11T11:40:25.720Z,51.63
2019-03-11T11:42:53.556Z,50.93
2019-03-11T11:45:25.264Z,48.06
2019-03-11T11:47:52.827Z,45.33
2019-03-11T11:50:23.060Z,44.25
2019-03-11T11:52:50.879Z,42.89
2019-03-11T11:55:22.425Z,41.73
2019-03-11T11:57:50.556Z,42.50
2019-03-11T12:00:26.359Z,43.90
2019-03-11T12:02:53.551Z,44.82
2019-03-11T12:05:24.219Z,46.05
2019-03-11T12:07:51.841Z,47.56
2019-03-11T12:10:28.327Z,48.91
2019-03-11T12:13:00.168Z,49.74
2019-03-11T12:15:27.165Z,49.83
2019-03-11T12:17:56.071Z,49.54
2019-03-11T12:20:28.285Z,46.42
2019-03-11T12:22:57.822Z,42.03
2019-03-11T12:25:26.003Z,40.24
2019-03-11T12:27:54.579Z,39.94
2019-03-11T12:30:35.752Z,40.68
2019-03-11T12:33:03.382Z,40.35
2019-03-11T12:35:30.427Z,42.19
2019-03-11T12:37:58.286Z,44.92
2019-03-11T12:40:25.492Z,46.22
2019-03-11T12:42:53.077Z,45.42
2019-03-11T12:45:22.530Z,45.14
2019-03-11T12:47:49.876Z,42.36
2019-03-11T12:50:24.469Z,40.15
2019-03-11T12:52:51.557Z,39.62
2019-03-11T12:55:21.278Z,36.92
2019-03-11T12:57:48.253Z,37.46
2019-03-11T13:00:20.896Z,39.31
2019-03-11T13:02:48.436Z,40.28
2019-03-11T13:05:16.482Z,41.68
2019-03-11T13:07:43.859Z,41.95
2019-03-11T13:10:24.548Z,39.95
2019-03-11T13:12:51.745Z,38.59
2019-03-11T13:15:19.435Z,39.15
2019-03-11T13:17:46.936Z,38.79
2019-03-11T13:20:33.060Z,36.18
2019-03-11T13:22:59.945Z,37.79
2019-03-11T13:25:29.750Z,40.73
2019-03-11T13:27:59.156Z,41.25
2019-03-11T13:30:28.570Z,40.29
2019-03-11T13:32:56.036Z,41.16
2019-03-11T13:35:24.612Z,42.33
2019-03-11T13:37:52.440Z,42.05
2019-03-11T13:40:21.355Z,38.75
2019-03-11T13:42:48.380Z,39.49
2019-03-11T13:45:17.163Z,41.35
2019-03-11T13:47:44.463Z,43.22
2019-03-11T13:50:17.284Z,43.01
2019-03-11T13:52:44.653Z,43.17
2019-03-11T13:55:14.919Z,43.74
2019-03-11T13:57:41.833Z,44.26
2019-03-11T14:00:15.435Z,44.05
2019-03-11T14:02:42.298Z,43.70
2019-03-11T14:05:11.839Z,41.47
2019-03-11T14:07:38.777Z,39.55
2019-03-11T14:10:11.480Z,38.07
2019-03-11T14:12:38.553Z,38.82
2019-03-11T14:15:17.978Z,39.57
2019-03-11T14:17:45.189Z,38.61
2019-03-11T14:20:13.599Z,38.88
2019-03-11T14:22:43.283Z,38.41
2019-03-11T14:25:15.394Z,39.14
2019-03-11T14:27:43.651Z,38.78
2019-03-11T14:30:18.272Z,37.96
2019-03-11T14:32:45.560Z,38.44
2019-03-11T14:35:12.881Z,39.07
2019-03-11T14:37:40.158Z,41.37
2019-03-11T14:40:11.133Z,42.21
2019-03-11T14:42:38.248Z,42.97
2019-03-11T14:45:16.446Z,43.27
2019-03-11T14:47:43.788Z,42.98
2019-03-11T14:50:13.220Z,43.10
2019-03-11T14:52:40.055Z,43.43
2019-03-11T14:55:10.455Z,43.64
2019-03-11T14:57:37.585Z,44.03
2019-03-11T15:00:21.791Z,43.91
2019-03-11T15:02:49.106Z,43.36
2019-03-11T15:05:19.013Z,43.13
2019-03-11T15:07:46.289Z,43.00
2019-03-11T15:10:19.270Z,42.68
2019-03-11T15:12:48.729Z,42.36
2019-03-11T15:15:24.243Z,41.78
2019-03-11T15:17:54.009Z,41.52
2019-03-11T15:20:21.347Z,41.40
2019-03-11T15:22:48.412Z,40.68
2019-03-11T15:25:16.668Z,40.54
2019-03-11T15:27:44.218Z,40.42
2019-03-11T15:30:15.590Z,40.27
2019-03-11T15:32:42.747Z,39.29
2019-03-11T15:35:11.091Z,40.14
2019-03-11T15:37:40.078Z,41.18
2019-03-11T15:40:16.493Z,42.26
2019-03-11T15:42:46.857Z,43.74
2019-03-11T15:45:15.532Z,45.79
2019-03-11T15:47:43.162Z,47.47
2019-03-11T15:50:29.051Z,47.61
2019-03-11T15:52:55.971Z,47.84
2019-03-11T15:55:24.345Z,50.80
2019-03-11T15:57:51.477Z,48.28
2019-03-11T16:00:21.637Z,48.62
2019-03-11T16:02:49.139Z,47.69
2019-03-11T16:05:18.919Z,46.67
2019-03-11T16:07:46.388Z,46.08
2019-03-11T16:10:17.190Z,45.67
2019-03-11T16:12:44.395Z,45.64
2019-03-11T16:15:13.212Z,45.74
2019-03-11T16:17:40.627Z,45.18
2019-03-11T16:20:20.186Z,45.39
2019-03-11T16:22:47.435Z,45.71
2019-03-11T16:25:14.994Z,45.75
2019-03-11T16:27:41.741Z,45.91
2019-03-11T16:30:20.181Z,46.19
2019-03-11T16:32:58.409Z,46.35
2019-03-11T16:35:16.135Z,46.22
2019-03-11T16:37:43.241Z,45.91
2019-03-11T16:40:12.118Z,45.75
2019-03-11T16:42:39.782Z,45.11
2019-03-11T16:45:10.147Z,45.70
2019-03-11T16:47:37.330Z,45.59
2019-03-11T16:50:28.805Z,45.48
2019-03-11T16:52:55.736Z,45.42
2019-03-11T16:55:25.225Z,45.13
2019-03-11T16:57:54.031Z,45.50
2019-03-11T17:00:23.532Z,45.10
2019-03-11T17:02:50.551Z,45.02
2019-03-11T17:05:18.105Z,45.17
2019-03-11T17:07:45.323Z,45.46
2019-03-11T17:10:15.796Z,45.28
2019-03-11T17:12:42.930Z,45.40
2019-03-11T17:15:10.903Z,45.44
2019-03-11T17:17:37.708Z,45.46
2019-03-11T17:20:12.800Z,45.24
2019-03-11T17:22:40.061Z,45.33
2019-03-11T17:25:10.917Z,45.37
2019-03-11T17:27:38.345Z,45.58
2019-03-11T17:30:20.700Z,45.68
2019-03-11T17:32:48.998Z,45.50
2019-03-11T17:35:16.391Z,44.87
2019-03-11T17:37:44.422Z,45.21
2019-03-11T17:40:19.648Z,45.36
2019-03-11T17:42:49.775Z,45.36
2019-03-11T17:45:16.817Z,45.22
2019-03-11T17:47:43.869Z,45.33
2019-03-11T17:50:20.126Z,45.21
2019-03-11T17:52:47.734Z,45.20
2019-03-11T17:55:16.362Z,45.29
2019-03-11T17:57:44.191Z,45.28
2019-03-11T18:00:30.761Z,45.24
2019-03-11T18:02:58.019Z,45.24
2019-03-11T18:05:25.155Z,45.48
2019-03-11T18:07:52.247Z,45.47
2019-03-11T18:10:19.313Z,45.46
2019-03-11T18:12:47.464Z,45.48
2019-03-11T18:15:18.118Z,45.51
2019-03-11T18:17:45.528Z,45.55
2019-03-11T18:20:17.533Z,45.51
2019-03-11T18:22:44.677Z,45.50
2019-03-11T18:25:15.253Z,45.43
2019-03-11T18:27:42.298Z,45.64
2019-03-11T18:30:17.384Z,45.78
2019-03-11T18:32:44.554Z,45.89
2019-03-11T18:35:12.218Z,46.00
2019-03-11T18:37:39.292Z,46.05
2019-03-11T18:40:13.557Z,46.15
2019-03-11T18:42:40.645Z,46.00
2019-03-11T18:45:10.569Z,45.75
2019-03-11T18:47:37.461Z,45.53
2019-03-11T18:50:16.503Z,45.56
2019-03-11T18:52:43.868Z,45.60
2019-03-11T18:55:11.043Z,45.38
2019-03-11T18:57:38.001Z,45.57
2019-03-11T19:00:20.543Z,45.44
2019-03-11T19:02:48.053Z,45.43
2019-03-11T19:05:22.760Z,45.36
2019-03-11T19:07:49.834Z,45.26
2019-03-11T19:10:17.172Z,45.23
2019-03-11T19:12:44.635Z,45.16
2019-03-11T19:15:18.018Z,45.10
2019-03-11T19:17:45.089Z,45.00
2019-03-11T19:20:24.344Z,44.89
2019-03-11T19:22:52.171Z,44.90
2019-03-11T19:25:19.842Z,44.95
2019-03-11T19:27:47.067Z,44.95
2019-03-11T19:30:21.774Z,45.23
2019-03-11T19:32:49.112Z,45.32
2019-03-11T19:35:18.163Z,45.22
2019-03-11T19:37:45.499Z,45.39
2019-03-11T19:40:19.194Z,45.51
2019-03-11T19:42:46.485Z,45.57
2019-03-11T19:45:15.453Z,45.68
2019-03-11T19:47:43.118Z,45.61
2019-03-11T19:50:13.740Z,45.76
2019-03-11T19:52:42.741Z,45.92
2019-03-11T19:55:10.369Z,45.84
2019-03-11T19:57:37.276Z,45.92
2019-03-11T20:00:20.418Z,46.05
2019-03-11T20:02:49.072Z,45.99
2019-03-11T20:05:23.743Z,45.99
2019-03-11T20:07:50.895Z,46.19
2019-03-11T20:10:18.365Z,46.27
2019-03-11T20:12:45.349Z,46.27
2019-03-11T20:15:13.098Z,46.32
2019-03-11T20:17:40.673Z,46.48
2019-03-11T20:20:16.414Z,46.61
2019-03-11T20:22:43.634Z,46.64
2019-03-11T20:25:17.400Z,46.60
2019-03-11T20:27:44.727Z,46.77
2019-03-11T20:30:15.859Z,47.24
2019-03-11T20:32:43.170Z,47.31
2019-03-11T20:35:10.295Z,47.35
2019-03-11T20:37:39.939Z,47.31
2019-03-11T20:40:10.118Z,47.67
2019-03-11T20:42:37.817Z,47.46
2019-03-11T20:45:14.871Z,47.48
2019-03-11T20:47:41.904Z,47.65
2019-03-11T20:50:12.905Z,47.55
2019-03-11T20:52:42.738Z,47.52
2019-03-11T20:55:12.827Z,47.62
2019-03-11T20:57:40.756Z,47.47
2019-03-11T21:00:13.899Z,47.58
2019-03-11T21:02:42.292Z,47.38
2019-03-11T21:05:13.462Z,47.46
2019-03-11T21:07:40.475Z,47.45
2019-03-11T21:10:12.071Z,47.38
2019-03-11T21:12:39.360Z,47.35
2019-03-11T21:15:11.266Z,47.79
2019-03-11T21:17:38.842Z,47.86
2019-03-11T21:20:13.594Z,47.93
2019-03-11T21:22:40.067Z,48.02
2019-03-11T21:25:14.044Z,48.05
2019-03-11T21:27:41.182Z,48.26
2019-03-11T21:30:22.910Z,48.30
2019-03-11T21:32:53.180Z,48.32
2019-03-11T21:35:20.397Z,48.23
2019-03-11T21:37:47.624Z,48.47
2019-03-11T21:40:17.751Z,48.59
2019-03-11T21:42:47.772Z,48.85
2019-03-11T21:45:18.978Z,49.49
2019-03-11T21:47:46.683Z,49.30
2019-03-11T21:50:25.362Z,49.25
2019-03-11T21:52:52.614Z,49.60
2019-03-11T21:55:19.749Z,49.52
2019-03-11T21:57:47.194Z,50.00
2019-03-11T22:00:32.906Z,50.24
2019-03-11T22:02:51.952Z,50.51
2019-03-11T22:05:19.434Z,50.59
2019-03-11T22:07:46.391Z,50.95
2019-03-11T22:10:14.979Z,50.92
2019-03-11T22:12:42.286Z,50.86
2019-03-11T22:15:15.764Z,50.93
2019-03-11T22:17:42.706Z,50.86
2019-03-11T22:20:14.107Z,51.43
2019-03-11T22:22:41.130Z,51.78
2019-03-11T22:25:12.144Z,52.10
2019-03-11T22:27:38.992Z,51.82
2019-03-11T22:30:19.564Z,51.57
2019-03-11T22:32:47.060Z,51.68
2019-03-11T22:35:14.028Z,51.57
2019-03-11T22:37:41.139Z,51.63
2019-03-11T22:40:13.147Z,52.26
2019-03-11T22:42:40.369Z,51.88
2019-03-11T22:45:16.928Z,51.60
2019-03-11T22:47:42.799Z,51.57
2019-03-11T22:50:10.418Z,51.88
2019-03-11T22:52:37.513Z,51.95
2019-03-11T22:55:07.673Z,52.00
2019-03-11T22:57:34.784Z,51.97
2019-03-11T23:00:11.561Z,52.24
2019-03-11T23:02:40.536Z,52.31
2019-03-11T23:05:08.987Z,52.10
2019-03-11T23:07:35.775Z,52.40
2019-03-11T23:10:05.061Z,52.03
2019-03-11T23:12:32.260Z,51.85
2019-03-11T23:14:59.363Z,51.87
2019-03-11T23:17:26.240Z,52.21
2019-03-11T23:19:53.155Z,52.77
2019-03-11T23:22:20.257Z,52.91
2019-03-11T23:24:47.278Z,52.81
2019-03-11T23:27:14.372Z,52.41
2019-03-11T23:29:44.329Z,52.24
2019-03-11T23:32:11.084Z,52.47
2019-03-11T23:34:37.813Z,53.21
2019-03-11T23:37:04.838Z,53.91
2019-03-11T23:39:31.972Z,53.26
2019-03-11T23:41:59.728Z,53.10
2019-03-11T23:44:26.658Z,53.16
2019-03-11T23:46:53.562Z,53.66
2019-03-11T23:49:20.338Z,53.15
2019-03-11T23:51:47.502Z,53.28
2019-03-11T23:54:14.279Z,53.37
2019-03-11T23:56:41.204Z,53.77
2019-03-11T23:59:08.116Z,53.83
